Time;durP1;ratioP1;P1;durP2;ratioP2;P2;SDS_P1;SDS_P2;PMS_P1;PMS_P2;Temp;Humidity;BMP_temperature;BMP_pressure;BME280_temperature;BME280_humidity;BME280_pressure;Samples;Min_cycle;Max_cycle;Signal;HPM_P1;HPM_P2
2023/12/09 00:01:18;;;;;;;18.50;15.87;;;12.40;69.70;;;;;;5048446;28;20188;-55
2023/12/09 00:03:44;;;;;;;24.00;16.67;;;12.30;70.10;;;;;;5048604;28;20192;-53
2023/12/09 00:06:10;;;;;;;23.53;16.10;;;12.30;70.50;;;;;;5047381;28;20215;-57
2023/12/09 00:08:35;;;;;;;22.87;16.53;;;12.10;70.70;;;;;;5045391;28;20177;-53
2023/12/09 00:11:01;;;;;;;18.13;14.70;;;11.90;71.80;;;;;;5047278;28;20195;-56
2023/12/09 00:13:26;;;;;;;20.40;14.47;;;11.70;72.80;;;;;;5046945;28;20606;-49
2023/12/09 00:15:52;;;;;;;21.73;14.90;;;11.80;73.10;;;;;;5044409;28;20556;-51
2023/12/09 00:18:17;;;;;;;18.20;15.37;;;12.00;73.00;;;;;;5043968;28;20216;-54
2023/12/09 00:20:43;;;;;;;17.40;15.60;;;12.00;72.70;;;;;;5046781;28;20627;-56
2023/12/09 00:23:08;;;;;;;16.23;14.37;;;12.10;72.30;;;;;;5042649;28;20204;-54
2023/12/09 00:25:34;;;;;;;16.17;14.47;;;11.80;72.60;;;;;;5043153;28;20185;-52
2023/12/09 00:28:00;;;;;;;15.60;12.90;;;11.70;73.20;;;;;;5042357;28;20192;-53
2023/12/09 00:30:25;;;;;;;17.93;13.33;;;11.70;73.90;;;;;;5047014;28;20204;-54
2023/12/09 00:32:51;;;;;;;17.20;14.13;;;11.90;73.90;;;;;;5044220;28;20203;-53
2023/12/09 00:35:16;;;;;;;13.63;12.23;;;12.00;73.30;;;;;;5045437;28;20251;-51
2023/12/09 00:37:42;;;;;;;14.53;11.23;;;12.10;72.90;;;;;;5044915;28;20280;-55
2023/12/09 00:40:08;;;;;;;13.23;11.10;;;12.20;72.40;;;;;;5046569;28;20236;-52
2023/12/09 00:42:33;;;;;;;12.47;10.93;;;12.20;72.20;;;;;;5044886;28;20195;-55
2023/12/09 00:44:59;;;;;;;14.33;11.70;;;12.20;72.00;;;;;;5041946;28;20181;-56
2023/12/09 00:47:24;;;;;;;15.47;11.50;;;12.30;71.50;;;;;;5045408;28;20185;-51
2023/12/09 00:49:50;;;;;;;13.30;11.60;;;12.20;70.60;;;;;;5045636;28;20247;-52
2023/12/09 00:52:16;;;;;;;11.90;10.60;;;12.20;70.90;;;;;;5045526;28;20644;-54
2023/12/09 00:54:41;;;;;;;13.73;11.30;;;12.10;71.10;;;;;;5044682;28;20213;-54
2023/12/09 00:57:07;;;;;;;11.83;10.53;;;12.00;71.70;;;;;;5043618;28;20196;-51
2023/12/09 00:59:33;;;;;;;15.30;11.73;;;11.90;72.40;;;;;;5047078;28;20212;-55
2023/12/09 01:01:58;;;;;;;15.43;11.90;;;12.00;72.30;;;;;;5037464;28;20231;-52
2023/12/09 01:04:24;;;;;;;14.00;11.87;;;12.00;72.30;;;;;;5045504;28;20486;-53
2023/12/09 01:06:49;;;;;;;13.00;11.50;;;12.10;71.80;;;;;;5045411;28;20185;-54
2023/12/09 01:09:15;;;;;;;13.20;10.90;;;12.10;71.40;;;;;;5044985;28;20205;-53
2023/12/09 01:11:40;;;;;;;14.83;11.73;;;12.10;71.40;;;;;;5045253;28;20188;-52
2023/12/09 01:14:06;;;;;;;12.77;10.37;;;12.10;71.10;;;;;;5046069;28;20208;-52
2023/12/09 01:16:31;;;;;;;12.60;11.27;;;12.10;71.80;;;;;;5043422;28;20181;-56
2023/12/09 01:18:57;;;;;;;16.53;11.53;;;12.00;72.20;;;;;;5044128;28;20299;-55
2023/12/09 01:21:23;;;;;;;13.23;11.87;;;12.00;72.00;;;;;;5043524;28;20184;-54
2023/12/09 01:23:48;;;;;;;11.47;10.27;;;12.10;71.80;;;;;;5045273;28;20307;-55
2023/12/09 01:26:14;;;;;;;13.70;10.90;;;12.20;71.30;;;;;;5045001;28;20188;-54
2023/12/09 01:28:39;;;;;;;14.00;10.60;;;12.20;71.20;;;;;;5039618;28;20208;-52
2023/12/09 01:31:05;;;;;;;13.13;11.43;;;12.30;70.80;;;;;;5043909;28;20189;-53
2023/12/09 01:33:31;;;;;;;12.90;10.83;;;12.40;70.40;;;;;;5044607;28;20262;-51
2023/12/09 01:35:56;;;;;;;11.83;10.33;;;12.30;70.10;;;;;;5045032;28;20585;-51
2023/12/09 01:38:22;;;;;;;14.47;11.17;;;12.40;70.20;;;;;;5045212;28;20657;-52
2023/12/09 01:40:54;;;;;;;12.00;10.23;;;12.40;70.00;;;;;;5040280;28;20559;-49
2023/12/09 01:43:20;;;;;;;11.87;9.90;;;12.40;70.00;;;;;;5037680;28;20192;-56
2023/12/09 01:45:46;;;;;;;14.57;10.57;;;12.40;70.00;;;;;;5043442;28;20466;-52
2023/12/09 01:48:12;;;;;;;12.97;11.17;;;12.30;69.60;;;;;;5043310;28;20184;-52
2023/12/09 01:50:39;;;;;;;16.47;11.73;;;12.10;70.80;;;;;;5041353;28;20458;-51
2023/12/09 01:53:06;;;;;;;13.60;10.80;;;12.10;71.40;;;;;;5046778;28;20541;-52
2023/12/09 01:55:32;;;;;;;15.60;11.23;;;12.00;70.60;;;;;;5043865;28;20473;-51
2023/12/09 01:57:58;;;;;;;13.20;11.80;;;11.70;72.50;;;;;;5040204;28;20446;-52
2023/12/09 02:00:23;;;;;;;11.93;10.30;;;11.70;73.00;;;;;;5044134;28;20459;-54
2023/12/09 02:02:49;;;;;;;13.20;10.10;;;11.80;72.90;;;;;;5045752;28;20188;-55
2023/12/09 02:05:15;;;;;;;11.73;9.93;;;11.70;73.30;;;;;;5046000;28;20184;-55
2023/12/09 02:07:40;;;;;;;12.10;9.27;;;11.80;73.50;;;;;;5043189;28;20660;-53
2023/12/09 02:10:07;;;;;;;11.00;9.53;;;12.00;72.70;;;;;;5040179;28;20738;-51
2023/12/09 02:12:38;;;;;;;12.20;8.70;;;12.10;72.00;;;;;;5045689;28;20207;-51
2023/12/09 02:15:18;;;;;;;12.33;9.80;;;12.20;71.50;;;;;;5041333;28;22103;-52
2023/12/09 02:18:03;;;;;;;13.00;9.03;;;12.20;70.90;;;;;;5043350;28;20853;-53
2023/12/09 02:20:29;;;;;;;9.67;8.47;;;12.20;71.00;;;;;;5043190;28;20466;-53
2023/12/09 02:23:11;;;;;;;10.23;9.23;;;12.10;70.60;;;;;;5041813;28;20942;-56
2023/12/09 02:25:38;;;;;;;11.50;8.17;;;12.00;70.60;;;;;;5046881;28;20504;-52
2023/12/09 02:28:25;;;;;;;11.57;8.60;;;12.00;71.20;;;;;;5039649;28;20461;-50
2023/12/09 02:31:00;;;;;;;10.10;8.53;;;12.10;71.10;;;;;;5043370;28;20443;-54
2023/12/09 02:33:28;;;;;;;9.50;7.97;;;12.20;70.80;;;;;;5044404;28;21010;-55
2023/12/09 02:35:55;;;;;;;9.17;7.93;;;12.20;70.40;;;;;;5043725;28;20578;-54
2023/12/09 02:38:22;;;;;;;9.93;8.90;;;12.20;70.20;;;;;;5046231;28;20423;-51
2023/12/09 02:40:49;;;;;;;9.57;8.37;;;12.20;70.20;;;;;;5047843;28;20446;-53
2023/12/09 02:43:15;;;;;;;11.33;9.60;;;12.10;70.30;;;;;;5049830;28;20447;-54
2023/12/09 02:45:40;;;;;;;10.33;7.73;;;12.00;70.70;;;;;;5043758;28;20443;-52
2023/12/09 02:48:06;;;;;;;11.57;8.57;;;12.00;70.30;;;;;;5047679;28;20574;-53
2023/12/09 02:50:32;;;;;;;10.07;7.93;;;12.10;70.00;;;;;;5046195;28;20794;-51
2023/12/09 02:52:57;;;;;;;10.67;8.40;;;12.00;70.30;;;;;;5047375;28;20208;-56
2023/12/09 02:55:23;;;;;;;16.20;8.20;;;11.90;70.60;;;;;;5050161;28;20227;-53
2023/12/09 02:57:48;;;;;;;9.03;8.10;;;11.80;71.10;;;;;;5046860;28;20534;-55
2023/12/09 03:00:14;;;;;;;12.37;7.90;;;11.90;70.90;;;;;;5048497;28;20303;-51
2023/12/09 03:02:40;;;;;;;9.20;7.70;;;11.90;70.80;;;;;;5042289;28;20273;-53
2023/12/09 03:05:06;;;;;;;12.10;7.80;;;12.00;70.70;;;;;;5047435;28;20280;-56
2023/12/09 03:07:32;;;;;;;10.07;9.07;;;12.10;70.20;;;;;;5044687;28;20184;-57
2023/12/09 03:09:57;;;;;;;12.77;8.90;;;12.20;69.70;;;;;;5042711;28;21001;-56
2023/12/09 03:12:23;;;;;;;11.03;8.60;;;12.30;69.60;;;;;;5049754;28;20643;-56
2023/12/09 03:14:48;;;;;;;9.53;8.17;;;12.40;69.40;;;;;;5043796;28;20291;-56
2023/12/09 03:17:14;;;;;;;12.03;8.03;;;12.40;69.10;;;;;;5048843;28;20269;-54
2023/12/09 03:19:40;;;;;;;10.43;8.77;;;12.40;69.10;;;;;;5047033;28;20303;-54
2023/12/09 03:22:05;;;;;;;9.13;7.90;;;12.40;69.00;;;;;;5045493;28;20193;-54
2023/12/09 03:24:31;;;;;;;10.70;7.80;;;12.50;69.10;;;;;;5046445;28;20238;-53
2023/12/09 03:26:56;;;;;;;9.77;7.50;;;12.50;69.00;;;;;;5045200;28;20193;-55
2023/12/09 03:29:22;;;;;;;8.60;6.90;;;12.50;69.60;;;;;;5047203;28;20193;-56
2023/12/09 03:31:48;;;;;;;11.47;6.90;;;12.50;68.70;;;;;;5046961;28;20188;-55
2023/12/09 03:34:15;;;;;;;7.87;6.50;;;12.50;68.40;;;;;;5047524;28;21424;-53
2023/12/09 03:36:40;;;;;;;7.07;6.33;;;12.50;68.30;;;;;;5046239;28;20447;-51
2023/12/09 03:39:06;;;;;;;6.93;6.13;;;12.60;68.40;;;;;;5048100;28;20814;-54
2023/12/09 03:41:33;;;;;;;8.03;6.00;;;12.60;68.20;;;;;;5044664;28;20188;-53
2023/12/09 03:43:58;;;;;;;10.30;6.20;;;12.60;67.90;;;;;;5046250;28;20185;-54
2023/12/09 03:46:24;;;;;;;9.03;7.43;;;12.40;67.80;;;;;;5044273;28;20470;-54
2023/12/09 03:48:50;;;;;;;7.37;6.50;;;12.40;68.20;;;;;;5043613;28;20676;-54
2023/12/09 03:51:15;;;;;;;9.20;7.03;;;12.50;68.40;;;;;;5046372;28;20202;-57
2023/12/09 03:53:42;;;;;;;9.30;6.70;;;12.50;68.10;;;;;;5044813;28;20556;-51
2023/12/09 03:56:08;;;;;;;7.57;6.53;;;12.50;67.90;;;;;;5045768;28;20718;-53
2023/12/09 03:58:34;;;;;;;8.33;6.67;;;12.50;67.50;;;;;;5040438;28;20509;-56
2023/12/09 04:00:59;;;;;;;10.57;7.60;;;12.50;67.40;;;;;;5046236;28;21328;-54
2023/12/09 04:03:27;;;;;;;13.40;7.60;;;12.50;67.40;;;;;;5043151;28;20728;-52
2023/12/09 04:05:53;;;;;;;9.43;7.30;;;12.40;67.40;;;;;;5047193;28;20184;-55
2023/12/09 04:08:18;;;;;;;8.93;6.43;;;12.40;67.50;;;;;;5042482;28;20984;-52
2023/12/09 04:10:44;;;;;;;10.00;7.40;;;12.40;67.20;;;;;;5048596;28;20233;-52
2023/12/09 04:13:09;;;;;;;12.37;8.80;;;12.30;67.50;;;;;;5047283;28;20216;-52
2023/12/09 04:15:35;;;;;;;13.00;8.83;;;12.30;67.20;;;;;;5038562;28;20283;-53
2023/12/09 04:18:00;;;;;;;12.40;9.77;;;11.90;67.60;;;;;;5043051;28;20215;-54
2023/12/09 04:20:26;;;;;;;10.23;8.30;;;11.70;69.40;;;;;;5042415;28;20228;-54
2023/12/09 04:22:51;;;;;;;11.90;8.90;;;11.70;69.80;;;;;;5045780;28;20271;-52
2023/12/09 04:25:17;;;;;;;15.07;9.00;;;11.80;69.50;;;;;;5043448;28;20265;-52
2023/12/09 04:27:42;;;;;;;13.37;9.57;;;11.80;69.00;;;;;;5043116;28;20250;-51
2023/12/09 04:30:09;;;;;;;12.90;10.47;;;11.90;68.80;;;;;;5046248;28;20290;-54
2023/12/09 04:32:35;;;;;;;14.03;9.87;;;11.90;68.30;;;;;;5042433;28;20189;-53
2023/12/09 04:35:00;;;;;;;10.53;8.07;;;11.90;67.90;;;;;;5048925;28;20536;-52
2023/12/09 04:37:26;;;;;;;10.50;9.40;;;11.90;67.50;;;;;;5040598;28;20419;-53
2023/12/09 04:39:52;;;;;;;11.10;9.07;;;11.80;67.40;;;;;;5042988;28;20209;-52
2023/12/09 04:42:18;;;;;;;9.43;8.20;;;11.80;67.00;;;;;;5044980;28;20267;-55
2023/12/09 04:44:44;;;;;;;12.70;8.50;;;11.80;67.10;;;;;;5045753;28;20188;-53
2023/12/09 04:47:09;;;;;;;14.30;9.43;;;11.70;67.60;;;;;;5048709;28;20557;-56
2023/12/09 04:49:35;;;;;;;8.90;8.03;;;11.70;68.00;;;;;;5044785;28;20219;-53
2023/12/09 04:52:00;;;;;;;12.63;8.20;;;11.70;67.90;;;;;;5046213;28;20219;-53
2023/12/09 04:54:26;;;;;;;11.37;9.60;;;11.70;67.80;;;;;;5046426;28;20582;-54
2023/12/09 04:56:52;;;;;;;10.87;9.47;;;11.70;67.80;;;;;;5044201;28;20279;-52
2023/12/09 04:59:17;;;;;;;10.13;8.43;;;11.70;68.10;;;;;;5043947;28;20208;-52
2023/12/09 05:01:43;;;;;;;17.17;10.30;;;11.70;67.60;;;;;;5042796;28;20200;-54
2023/12/09 05:04:08;;;;;;;11.20;8.37;;;11.70;67.80;;;;;;5044218;28;20177;-53
2023/12/09 05:06:34;;;;;;;9.10;8.10;;;11.70;67.90;;;;;;5042495;28;20204;-55
2023/12/09 05:09:00;;;;;;;9.13;8.17;;;11.70;68.20;;;;;;5046735;28;20201;-52
2023/12/09 05:11:26;;;;;;;8.93;7.50;;;11.50;68.00;;;;;;5044950;28;20188;-55
2023/12/09 05:13:51;;;;;;;9.00;7.53;;;11.30;69.10;;;;;;5042887;28;20878;-53
2023/12/09 05:16:17;;;;;;;12.43;8.37;;;11.30;69.90;;;;;;5039654;28;20467;-52
2023/12/09 05:18:43;;;;;;;10.57;7.70;;;11.30;70.20;;;;;;5042672;28;20236;-52
2023/12/09 05:21:08;;;;;;;10.13;8.00;;;11.30;70.30;;;;;;5044304;28;20181;-52
2023/12/09 05:23:34;;;;;;;9.57;6.47;;;11.30;70.60;;;;;;5041885;28;20625;-55
2023/12/09 05:26:00;;;;;;;8.20;6.70;;;11.10;70.90;;;;;;5043635;28;20222;-56
2023/12/09 05:28:25;;;;;;;7.40;6.70;;;11.10;71.80;;;;;;5043481;28;20431;-54
2023/12/09 05:30:51;;;;;;;7.30;6.03;;;11.10;71.60;;;;;;5044049;28;20360;-52
2023/12/09 05:33:17;;;;;;;7.63;5.67;;;11.20;71.10;;;;;;5042017;28;20185;-54
2023/12/09 05:35:42;;;;;;;7.53;6.40;;;11.30;71.10;;;;;;5041409;28;20220;-54
2023/12/09 05:38:08;;;;;;;11.67;5.67;;;11.50;70.70;;;;;;5038994;28;20693;-54
2023/12/09 05:40:33;;;;;;;9.90;5.43;;;11.50;70.00;;;;;;5040746;28;20304;-54
2023/12/09 05:42:59;;;;;;;8.17;4.73;;;11.50;70.00;;;;;;5042451;28;20544;-53
2023/12/09 05:45:24;;;;;;;7.10;5.23;;;11.40;69.60;;;;;;5045709;28;20699;-55
2023/12/09 05:47:50;;;;;;;5.80;5.23;;;11.40;70.20;;;;;;5040040;28;20188;-54
2023/12/09 05:50:15;;;;;;;9.13;6.20;;;11.40;70.30;;;;;;5038296;28;20295;-51
2023/12/09 05:52:42;;;;;;;7.97;6.23;;;11.50;70.00;;;;;;5038980;28;20213;-54
2023/12/09 05:55:07;;;;;;;7.90;5.60;;;11.30;70.70;;;;;;5036345;28;20211;-52
2023/12/09 05:57:33;;;;;;;8.43;6.90;;;11.20;70.70;;;;;;5041222;28;20450;-54
2023/12/09 05:59:58;;;;;;;7.57;5.77;;;11.00;71.80;;;;;;5047331;28;20258;-53
2023/12/09 06:02:24;;;;;;;6.90;5.60;;;11.20;72.20;;;;;;5038833;28;20173;-52
2023/12/09 06:04:49;;;;;;;7.43;5.20;;;11.20;71.40;;;;;;5046404;28;20236;-54
2023/12/09 06:07:15;;;;;;;5.00;4.53;;;11.20;70.40;;;;;;5043208;28;20618;-53
2023/12/09 06:09:42;;;;;;;7.23;4.43;;;11.10;71.70;;;;;;5045432;28;20311;-54
2023/12/09 06:12:08;;;;;;;7.03;4.30;;;11.30;71.10;;;;;;5045707;28;20509;-54
2023/12/09 06:14:33;;;;;;;7.00;5.03;;;11.50;70.30;;;;;;5048979;28;20208;-53
2023/12/09 06:16:59;;;;;;;7.40;5.50;;;11.60;69.30;;;;;;5046943;28;20188;-54
2023/12/09 06:19:24;;;;;;;7.90;5.00;;;11.70;69.00;;;;;;5046501;28;20222;-52
2023/12/09 06:21:50;;;;;;;10.80;5.50;;;11.50;68.90;;;;;;5044898;28;20246;-54
2023/12/09 06:24:16;;;;;;;7.93;5.20;;;11.50;69.70;;;;;;5047977;28;20562;-55
2023/12/09 06:26:44;;;;;;;14.73;5.57;;;11.40;69.60;;;;;;5044752;28;20535;-52
2023/12/09 06:29:12;;;;;;;25.50;6.20;;;11.40;70.20;;;;;;5048058;28;20228;-55
2023/12/09 06:31:38;;;;;;;10.57;6.37;;;11.20;71.50;;;;;;5046424;28;20995;-53
2023/12/09 06:34:03;;;;;;;7.47;6.67;;;11.50;72.10;;;;;;5047360;28;20468;-55
2023/12/09 06:36:29;;;;;;;7.83;5.20;;;11.80;71.20;;;;;;5045280;28;20578;-54
2023/12/09 06:38:54;;;;;;;8.17;7.13;;;12.20;70.20;;;;;;5047977;28;20307;-52
2023/12/09 06:41:19;;;;;;;6.30;5.13;;;12.40;68.90;;;;;;5044003;28;20220;-54
2023/12/09 06:43:46;;;;;;;7.13;5.57;;;12.50;67.60;;;;;;5048589;28;20216;-55
2023/12/09 06:46:11;;;;;;;9.17;5.43;;;12.50;66.60;;;;;;5045988;28;20656;-54
2023/12/09 06:48:38;;;;;;;5.63;4.97;;;12.80;66.20;;;;;;5045076;28;20431;-55
2023/12/09 06:51:04;;;;;;;8.70;5.30;;;13.00;65.40;;;;;;5045236;28;20193;-54
2023/12/09 06:53:29;;;;;;;6.40;4.93;;;13.00;64.70;;;;;;5045315;28;20450;-53
2023/12/09 06:55:55;;;;;;;6.87;4.33;;;13.00;64.80;;;;;;5047213;28;20474;-54
2023/12/09 06:58:20;;;;;;;6.40;4.33;;;12.80;64.10;;;;;;5047469;28;20184;-54
2023/12/09 07:00:46;;;;;;;5.07;4.00;;;12.80;63.60;;;;;;5046510;28;20239;-51
2023/12/09 07:03:12;;;;;;;5.83;4.00;;;12.90;63.20;;;;;;5048046;28;20557;-55
2023/12/09 07:05:37;;;;;;;6.07;3.70;;;13.00;62.80;;;;;;5046025;28;20186;-54
2023/12/09 07:08:03;;;;;;;5.03;4.13;;;13.10;62.90;;;;;;5044506;28;20208;-55
2023/12/09 07:10:29;;;;;;;5.23;4.27;;;13.10;62.80;;;;;;5041794;28;20209;-51
2023/12/09 07:12:55;;;;;;;5.10;3.83;;;13.00;62.90;;;;;;5048814;28;20859;-52
2023/12/09 07:15:20;;;;;;;6.33;3.90;;;13.00;62.80;;;;;;5043477;28;20479;-57
2023/12/09 07:17:46;;;;;;;6.53;3.80;;;13.00;62.50;;;;;;5040851;28;20181;-55
2023/12/09 07:20:12;;;;;;;5.37;4.07;;;12.60;62.80;;;;;;5044827;28;20254;-51
2023/12/09 07:22:37;;;;;;;6.00;4.70;;;12.50;64.10;;;;;;5044966;28;20188;-56
2023/12/09 07:25:03;;;;;;;5.40;4.20;;;12.50;63.70;;;;;;5045231;28;20529;-51
2023/12/09 07:27:28;;;;;;;6.80;4.40;;;12.40;64.00;;;;;;5043358;28;20187;-52
2023/12/09 07:29:54;;;;;;;7.43;5.80;;;12.60;63.60;;;;;;5044508;28;20217;-58
2023/12/09 07:32:19;;;;;;;5.67;5.07;;;12.80;63.60;;;;;;5042609;28;20181;-51
2023/12/09 07:34:45;;;;;;;6.53;5.43;;;13.00;63.00;;;;;;5048373;28;20214;-54
2023/12/09 07:37:14;;;;;;;6.67;5.60;;;13.00;63.00;;;;;;5042827;28;20173;-51
2023/12/09 07:39:40;;;;;;;7.70;5.90;;;13.00;63.00;;;;;;5046335;28;20676;-51
2023/12/09 07:42:05;;;;;;;6.83;4.73;;;13.10;62.30;;;;;;5048192;28;20458;-52
2023/12/09 07:44:31;;;;;;;8.83;5.60;;;13.00;62.60;;;;;;5045020;28;20187;-52
2023/12/09 07:46:56;;;;;;;7.27;5.70;;;13.00;62.90;;;;;;5048328;28;20180;-55
2023/12/09 07:49:22;;;;;;;7.23;4.90;;;13.00;62.10;;;;;;5044502;28;20212;-50
2023/12/09 07:51:47;;;;;;;6.83;5.50;;;12.90;61.90;;;;;;5047656;28;20581;-51
2023/12/09 07:54:13;;;;;;;7.00;6.30;;;12.80;62.30;;;;;;5044805;28;20208;-53
2023/12/09 07:56:38;;;;;;;8.40;6.17;;;12.70;62.70;;;;;;5047224;28;20202;-56
2023/12/09 07:59:04;;;;;;;6.60;5.87;;;12.90;62.90;;;;;;5039061;28;20287;-52
2023/12/09 08:01:29;;;;;;;8.27;6.00;;;12.90;63.10;;;;;;5046839;28;20298;-55
2023/12/09 08:03:55;;;;;;;7.53;6.10;;;13.00;62.80;;;;;;5043749;28;20276;-52
2023/12/09 08:06:21;;;;;;;7.73;6.43;;;13.00;62.90;;;;;;5044269;28;20184;-53
2023/12/09 08:08:50;;;;;;;10.93;6.43;;;13.10;62.70;;;;;;5047551;28;20305;-54
2023/12/09 08:11:16;;;;;;;11.23;6.40;;;12.90;62.80;;;;;;5047810;28;20640;-51
2023/12/09 08:13:43;;;;;;;7.53;6.83;;;12.90;63.40;;;;;;5044866;28;20479;-53
2023/12/09 08:16:08;;;;;;;7.50;6.00;;;13.00;62.80;;;;;;5047796;28;20493;-51
2023/12/09 08:18:34;;;;;;;9.30;6.43;;;13.00;63.00;;;;;;5043998;28;20443;-55
2023/12/09 08:21:00;;;;;;;8.20;6.87;;;12.70;63.80;;;;;;5038867;28;20188;-51
2023/12/09 08:23:27;;;;;;;10.07;7.00;;;12.10;65.40;;;;;;5048974;28;20247;-52
2023/12/09 08:25:53;;;;;;;7.53;6.63;;;11.90;67.20;;;;;;5048633;28;20435;-54
2023/12/09 08:28:19;;;;;;;7.67;6.50;;;12.00;67.30;;;;;;5040337;28;20632;-50
2023/12/09 08:30:46;;;;;;;11.83;6.50;;;12.10;67.00;;;;;;5045215;28;20208;-51
2023/12/09 08:33:13;;;;;;;7.33;5.70;;;12.10;66.60;;;;;;5043790;28;20438;-54
2023/12/09 08:35:38;;;;;;;8.77;5.80;;;12.10;67.10;;;;;;5045787;28;20846;-52
2023/12/09 08:38:04;;;;;;;8.60;7.80;;;12.10;66.90;;;;;;5045479;28;20431;-54
2023/12/09 08:40:29;;;;;;;8.77;6.97;;;12.30;66.60;;;;;;5042086;28;20214;-52
2023/12/09 08:42:55;;;;;;;7.33;5.93;;;12.40;65.90;;;;;;5043267;28;20215;-56
2023/12/09 08:45:20;;;;;;;9.73;5.80;;;12.50;65.10;;;;;;5043213;28;20212;-55
2023/12/09 08:47:46;;;;;;;7.03;6.33;;;12.60;64.80;;;;;;5043545;28;20220;-53
2023/12/09 08:50:12;;;;;;;6.83;6.13;;;12.80;65.10;;;;;;5042163;28;20212;-55
2023/12/09 08:52:39;;;;;;;7.13;6.40;;;12.90;65.10;;;;;;5040469;28;20193;-54
2023/12/09 08:55:05;;;;;;;7.77;5.63;;;12.90;63.90;;;;;;5042269;28;20517;-55
2023/12/09 08:57:31;;;;;;;7.23;5.97;;;13.00;64.60;;;;;;5043960;28;20512;-51
2023/12/09 08:59:56;;;;;;;9.47;6.53;;;12.90;63.20;;;;;;5043768;28;20451;-56
2023/12/09 09:02:22;;;;;;;7.80;6.20;;;12.70;64.20;;;;;;5040856;28;20193;-55
2023/12/09 09:04:48;;;;;;;6.70;6.07;;;12.60;65.40;;;;;;5046447;28;20640;-54
2023/12/09 09:07:14;;;;;;;9.23;6.50;;;12.70;65.20;;;;;;5043395;28;20500;-53
2023/12/09 09:09:39;;;;;;;9.87;6.60;;;12.80;64.70;;;;;;5044865;28;20212;-52
2023/12/09 09:12:06;;;;;;;7.13;6.30;;;12.90;65.00;;;;;;5045370;28;20434;-51
2023/12/09 09:14:36;;;;;;;7.20;6.00;;;13.10;64.60;;;;;;5046123;28;20258;-52
2023/12/09 09:17:04;;;;;;;7.27;6.03;;;13.30;64.30;;;;;;5042970;28;20505;-55
2023/12/09 09:19:30;;;;;;;11.07;7.00;;;13.40;63.40;;;;;;5043289;28;20449;-56
2023/12/09 09:21:56;;;;;;;5.83;5.00;;;13.60;63.00;;;;;;5044542;28;20514;-54
2023/12/09 09:24:22;;;;;;;6.30;5.70;;;13.70;62.60;;;;;;5044838;28;20200;-51
2023/12/09 09:26:47;;;;;;;6.90;6.00;;;13.90;62.20;;;;;;5044651;28;21380;-55
2023/12/09 09:29:13;;;;;;;11.80;6.37;;;14.00;61.70;;;;;;5042781;28;20239;-52
2023/12/09 09:31:38;;;;;;;8.67;5.13;;;14.10;61.80;;;;;;5040478;28;20243;-54
2023/12/09 09:34:04;;;;;;;6.20;4.33;;;14.10;61.40;;;;;;5044538;28;20184;-52
2023/12/09 09:36:30;;;;;;;6.90;4.63;;;14.20;61.00;;;;;;5037263;28;20192;-55
2023/12/09 09:38:56;;;;;;;6.70;4.70;;;14.30;60.60;;;;;;5043267;28;20585;-55
2023/12/09 09:41:28;;;;;;;6.47;5.57;;;14.30;60.10;;;;;;5042687;28;20427;-55
2023/12/09 09:44:10;;;;;;;6.30;5.33;;;14.20;59.10;;;;;;5046222;28;20435;-54
2023/12/09 09:46:37;;;;;;;5.97;5.37;;;13.90;59.30;;;;;;5042099;28;20545;-56
2023/12/09 09:49:04;;;;;;;7.83;5.70;;;13.60;60.10;;;;;;5046018;28;20459;-55
2023/12/09 09:51:31;;;;;;;5.20;3.90;;;13.50;61.50;;;;;;5046939;28;20458;-54
2023/12/09 09:54:08;;;;;;;3.93;3.00;;;13.40;62.00;;;;;;5047181;28;20514;-51
2023/12/09 09:56:35;;;;;;;4.37;3.20;;;13.40;62.00;;;;;;5050109;28;20423;-52
2023/12/09 09:59:00;;;;;;;5.23;3.10;;;13.30;62.00;;;;;;5045879;28;20474;-56
2023/12/09 10:01:27;;;;;;;4.00;3.23;;;13.10;62.00;;;;;;5047251;28;20451;-55
2023/12/09 10:03:53;;;;;;;3.83;2.93;;;13.10;62.40;;;;;;5048562;28;20196;-51
2023/12/09 10:06:19;;;;;;;4.37;3.07;;;13.00;62.60;;;;;;5051130;28;20505;-53
2023/12/09 10:08:45;;;;;;;5.77;3.37;;;13.10;62.30;;;;;;5043367;28;20691;-51
2023/12/09 10:11:11;;;;;;;6.93;3.53;;;13.20;62.20;;;;;;5053682;28;20472;-54
2023/12/09 10:13:36;;;;;;;5.20;2.93;;;13.20;62.00;;;;;;5050244;28;20473;-52
2023/12/09 10:16:03;;;;;;;4.27;3.43;;;13.10;61.70;;;;;;5048102;28;20280;-55
2023/12/09 10:18:30;;;;;;;7.30;3.53;;;13.10;61.70;;;;;;5046773;28;20619;-54
2023/12/09 10:20:55;;;;;;;4.43;3.13;;;13.10;61.60;;;;;;5049341;28;20523;-57
2023/12/09 10:23:22;;;;;;;4.60;2.97;;;13.00;62.10;;;;;;5043868;28;20439;-55
2023/12/09 10:25:48;;;;;;;4.43;3.47;;;12.90;62.40;;;;;;5050227;28;20208;-52
2023/12/09 10:28:14;;;;;;;7.57;3.57;;;12.80;62.30;;;;;;5043327;28;20971;-57
2023/12/09 10:30:41;;;;;;;4.43;3.40;;;12.90;62.40;;;;;;5047119;28;20474;-52
2023/12/09 10:33:08;;;;;;;4.87;3.40;;;13.10;62.70;;;;;;5041223;28;20466;-56
2023/12/09 10:35:34;;;;;;;3.50;2.57;;;13.20;62.40;;;;;;5047450;28;20454;-53
2023/12/09 10:38:01;;;;;;;3.40;3.00;;;13.30;61.60;;;;;;5046657;28;20450;-56
2023/12/09 10:40:27;;;;;;;7.23;3.23;;;13.40;62.40;;;;;;5043159;28;20213;-55
2023/12/09 10:42:52;;;;;;;4.53;2.10;;;13.40;61.70;;;;;;5048848;28;20451;-54
2023/12/09 10:45:18;;;;;;;4.80;2.50;;;13.10;61.30;;;;;;5047667;28;20211;-52
2023/12/09 10:47:43;;;;;;;6.30;3.23;;;13.20;61.80;;;;;;5046205;28;20193;-53
2023/12/09 10:50:09;;;;;;;6.77;2.80;;;12.80;61.80;;;;;;5045104;28;20236;-52
2023/12/09 10:52:36;;;;;;;7.73;3.50;;;12.60;63.50;;;;;;5046315;28;20648;-51
2023/12/09 10:55:01;;;;;;;3.90;3.13;;;12.60;64.30;;;;;;5046881;28;20483;-52
2023/12/09 10:57:27;;;;;;;3.13;2.70;;;12.50;64.60;;;;;;5045857;28;20439;-54
2023/12/09 10:59:53;;;;;;;2.87;2.60;;;12.30;65.20;;;;;;5048357;28;20684;-53
2023/12/09 11:02:21;;;;;;;6.97;3.40;;;12.30;65.30;;;;;;5046976;28;20435;-55
2023/12/09 11:04:47;;;;;;;3.50;2.40;;;12.20;66.00;;;;;;5044578;28;20520;-55
2023/12/09 11:07:13;;;;;;;3.47;3.03;;;12.20;65.90;;;;;;5048909;28;20450;-55
2023/12/09 11:09:40;;;;;;;3.40;2.80;;;12.10;66.70;;;;;;5047267;28;20544;-53
2023/12/09 11:12:07;;;;;;;3.00;2.57;;;12.20;66.90;;;;;;5049437;28;20431;-52
2023/12/09 11:14:34;;;;;;;7.03;2.90;;;12.30;66.40;;;;;;5048212;28;20548;-55
2023/12/09 11:17:01;;;;;;;2.97;2.60;;;12.30;66.70;;;;;;5042306;28;20942;-56
2023/12/09 11:19:27;;;;;;;3.23;2.40;;;12.30;67.80;;;;;;5044814;28;20821;-55
2023/12/09 11:21:53;;;;;;;2.60;2.20;;;12.10;66.20;;;;;;5050801;28;20473;-52
2023/12/09 11:24:19;;;;;;;4.23;3.10;;;12.00;66.10;;;;;;5042461;28;20181;-51
2023/12/09 11:26:48;;;;;;;3.00;2.37;;;12.20;67.40;;;;;;5045362;28;20187;-54
2023/12/09 11:29:18;;;;;;;3.40;2.87;;;12.50;67.10;;;;;;5037570;28;20585;-55
2023/12/09 11:31:48;;;;;;;2.50;2.30;;;12.80;65.00;;;;;;5046062;28;20435;-54
2023/12/09 11:34:19;;;;;;;3.40;2.80;;;12.80;63.70;;;;;;5046726;28;20485;-54
2023/12/09 11:36:52;;;;;;;2.30;2.20;;;12.60;64.20;;;;;;5046497;28;20440;-55
2023/12/09 11:39:19;;;;;;;4.73;2.80;;;12.70;64.30;;;;;;5045316;28;20558;-57
2023/12/09 11:41:46;;;;;;;3.77;2.70;;;12.40;66.00;;;;;;5043396;28;21087;-54
2023/12/09 11:44:13;;;;;;;2.53;2.33;;;12.60;66.10;;;;;;5046543;28;20478;-52
2023/12/09 11:46:39;;;;;;;2.40;2.20;;;12.70;64.40;;;;;;5048376;28;20442;-54
2023/12/09 11:49:06;;;;;;;3.13;2.47;;;12.80;64.60;;;;;;5043061;28;20651;-54
2023/12/09 11:51:34;;;;;;;2.90;2.43;;;12.90;64.40;;;;;;5046967;28;20838;-54
2023/12/09 11:54:07;;;;;;;2.70;2.50;;;12.90;64.10;;;;;;5043206;28;20443;-54
2023/12/09 11:56:33;;;;;;;5.80;2.90;;;12.80;63.30;;;;;;5048155;28;20435;-53
2023/12/09 11:58:59;;;;;;;2.97;2.63;;;12.70;63.40;;;;;;5041866;28;20437;-52
2023/12/09 12:01:25;;;;;;;5.20;2.60;;;12.50;64.50;;;;;;5045077;28;20451;-53
2023/12/09 12:03:52;;;;;;;2.87;2.67;;;12.60;64.60;;;;;;5047958;28;20655;-54
2023/12/09 12:06:19;;;;;;;3.67;2.70;;;12.60;64.60;;;;;;5044988;28;20466;-52
2023/12/09 12:08:50;;;;;;;3.10;2.60;;;12.20;64.10;;;;;;5045800;28;20447;-56
2023/12/09 12:11:16;;;;;;;3.03;2.37;;;12.10;65.90;;;;;;5044636;28;20490;-57
2023/12/09 12:13:43;;;;;;;2.37;2.17;;;12.20;66.50;;;;;;5048167;28;20430;-57
2023/12/09 12:16:09;;;;;;;5.13;3.80;;;12.30;65.70;;;;;;5043718;28;20528;-53
2023/12/09 12:18:35;;;;;;;4.13;3.00;;;12.50;65.50;;;;;;5046415;28;20454;-53
2023/12/09 12:21:01;;;;;;;3.43;3.13;;;12.70;64.50;;;;;;5042594;28;20976;-52
2023/12/09 12:23:27;;;;;;;3.33;2.40;;;12.90;63.70;;;;;;5047081;28;20189;-51
2023/12/09 12:25:56;;;;;;;4.07;3.40;;;13.10;62.90;;;;;;5040995;28;20420;-53
2023/12/09 12:28:24;;;;;;;3.53;2.33;;;13.20;62.50;;;;;;5043112;28;20508;-56
2023/12/09 12:30:59;;;;;;;3.10;2.50;;;13.20;61.80;;;;;;5045005;28;20440;-54
2023/12/09 12:33:26;;;;;;;4.07;2.97;;;13.30;61.90;;;;;;5048810;28;20429;-55
2023/12/09 12:35:53;;;;;;;4.40;3.57;;;13.40;61.20;;;;;;5044822;28;20483;-54